MSC Bari — A8YD3 — position and weather

sailwx.info

Track history (hours):
 
Tides and Currents Weather Stations Pressure Air Temp Water Temp Dewpoint Dewpoint Depression Visibility Wind Speed Wind Dir Waves Ship Positions

MSC Bari

Last reported at 2018-May-21 00:00 UTC. Time now 2018-May-22 08:49 UTC.
Position N 26°48' E 034°42'.

Length 366 m; draft 15.3 m.

Type: Ship (hazmat cat A). MMSI: 636092188.

Wind from 320 at 13 knots

Barometer 1009.3 mb
Air temperature 26.0 ° C
Visibility: greater than 10.8 NM
Dewpoint 21.5 ° C
Water temperature 27.0 ° C

Date/timePositionNaut miles runAvg speedWind from/ knotsBaromVisibWave heightAir tempDewpointWater temp
2018-May-21 00:00N 26°48' E 034°42'26814.7 320 / 131009.310.8 26.021.527.0
2018-May-20 05:44N 30°45' E 032°20'3 8.3
2018-May-20 05:21N 30°48' E 032°19'4 8.6
2018-May-20 04:53N 30°52' E 032°19'3 8.8
2018-May-20 04:30N 30°55' E 032°19'6 9.0
2018-May-20 03:52N 31°01' E 032°19'3 8.0
2018-May-20 03:30N 31°04' E 032°19'4 8.4
2018-May-20 03:01N 31°08' E 032°19'5 6.9
2018-May-20 02:21N 31°12' E 032°21'0 0.9
2018-May-20 01:51N 31°12' E 032°21'0 0.0
2018-May-20 01:30N 31°12' E 032°21'0 0.0
2018-May-20 00:57N 31°12' E 032°21'0 0.0
2018-May-19 23:27N 31°12' E 032°21'0 0.0
2018-May-19 21:48N 31°12' E 032°21'0 0.0
2018-May-19 21:27N 31°12' E 032°21'0 0.0
2018-May-19 21:00N 31°12' E 032°21'0 0.0
2018-May-19 20:30N 31°12' E 032°21'0 0.0
2018-May-19 19:57N 31°12' E 032°21'0 0.0
2018-May-19 19:24N 31°12' E 032°21'0 0.0
2018-May-19 19:00N 31°12' E 032°21'0 0.0
2018-May-19 18:30N 31°12' E 032°21'0 0.0
2018-May-19 17:57N 31°12' E 032°21'0 0.0
2018-May-19 17:27N 31°12' E 032°21'0 0.0
2018-May-19 17:00N 31°12' E 032°21'0 0.0
2018-May-19 13:45N 31°12' E 032°21'0 0.0
2018-May-19 13:30N 31°12' E 032°21'0 0.0
2018-May-19 12:42N 31°12' E 032°21'0 0.0
2018-May-19 11:15N 31°12' E 032°21'0 0.0
2018-May-19 11:00N 31°12' E 032°21'0 0.0
2018-May-19 10:30N 31°12' E 032°21'0 0.0
2018-May-19 08:21N 31°12' E 032°21'0 0.0
2018-May-19 08:00N 31°12' E 032°21'0 0.6
2018-May-19 07:30N 31°13' E 032°21'4 7.1
2018-May-19 07:00N 31°16' E 032°22'611.5
2018-May-19 06:30N 31°22' E 032°24'5 9.7
2018-May-19 06:00N 31°26' E 032°27'1 1.5
2018-May-19 05:28N 31°26' E 032°28'0 0.0
2018-May-19 04:58N 31°26' E 032°28'0 0.0
2018-May-19 04:28N 31°26' E 032°28'0 0.1
2018-May-19 03:58N 31°26' E 032°28'0 0.2
2018-May-19 03:28N 31°26' E 032°28'0 0.5
2018-May-19 03:00N 31°26' E 032°28'3 6.9
2018-May-19 02:30N 31°28' E 032°24'611.6
2018-May-19 02:00N 31°30' E 032°18'2413.7
2018-May-19 00:13N 31°46' E 031°56'315.0
2018-May-19 00:00N 31°47' E 031°52'41907.1
2018-May-19 00:00N 31°48' E 031°48'3113.4 350 / 161013.010.8 21.517.523.0
2018-May-18 21:43N 32°01' E 031°16'315.0
2018-May-18 21:30N 32°03' E 031°12'714.8
2018-May-18 21:00N 32°06' E 031°04'1014.9
2018-May-18 20:18N 32°10' E 030°53'414.9
2018-May-18 20:00N 32°12' E 030°48'1014.8
2018-May-18 19:21N 32°16' E 030°38'1415.1
2018-May-18 18:23N 32°22' E 030°22'615.1
2018-May-18 18:01N 32°24' E 030°16'713.9
2018-May-18 17:30N 32°27' E 030°09'611.1
2018-May-18 17:00N 32°30' E 030°03'816.2
2018-May-18 16:30N 32°33' E 029°54'1116.0
2018-May-18 15:49N 32°37' E 029°42'715.8
2018-May-18 15:24N 32°40' E 029°35'1215.6
2018-May-18 14:39N 32°44' E 029°22'515.4
2018-May-18 14:20N 32°46' E 029°17'1215.7
2018-May-18 13:33N 32°52' E 029°03'116.4
2018-May-18 13:30N 32°52' E 029°03'1733.9
2018-May-18 13:00N 32°54' E 028°42'21516.5 030 / 141015.010.8 24.019.423.0
2018-May-18 00:00N 34°24' E 024°48'11416.3 140 / 51016.010.8 21.517.521.0
2018-May-17 17:00N 35°12' E 022°42'8617.2 060 / 91016.8 5.4 20.5 21.4
2018-May-17 12:00N 35°48' E 021°06'5914.6 160 / 141017.010.8 21.517.521.5
2018-May-17 08:00N 36°12' E 020°00'13216.5 110 / 101018.010.8 21.518.321.1
2018-May-17 00:00N 37°06' E 017°30'8815.4 110 / 61016.510.8 16.513.920.0
2018-May-16 18:18N 37°48' E 015°53'815.9
2018-May-16 17:47N 37°51' E 015°44'515.8
2018-May-16 17:29N 37°53' E 015°38'714.6
2018-May-16 17:00N 37°59' E 015°33'816.4
2018-May-16 16:30N 38°07' E 015°35'816.2
2018-May-16 16:00N 38°15' E 015°38'714.0
2018-May-16 15:30N 38°21' E 015°43'712.9
2018-May-16 15:00N 38°25' E 015°49'4 8.2
2018-May-16 14:30N 38°27' E 015°54'0 0.1
2018-May-16 12:53N 38°27' E 015°54'0 0.0
2018-May-16 12:16N 38°27' E 015°54'0 0.0
2018-May-16 11:58N 38°27' E 015°54'0 0.0
2018-May-16 11:29N 38°27' E 015°54'0 0.0
2018-May-16 10:47N 38°27' E 015°54'0 0.0
2018-May-16 10:29N 38°27' E 015°54'0 0.0
2018-May-16 09:58N 38°27' E 015°54'0 0.0
2018-May-16 09:29N 38°27' E 015°54'0 0.0
2018-May-16 08:52N 38°27' E 015°54'0 0.0
2018-May-16 08:28N 38°27' E 015°54'0 0.0
2018-May-16 07:58N 38°27' E 015°54'0 0.0
2018-May-16 06:29N 38°27' E 015°54'0 0.0
2018-May-16 05:58N 38°27' E 015°54'0 0.0
2018-May-16 05:29N 38°27' E 015°54'0 0.0
2018-May-16 04:58N 38°27' E 015°54'0 0.0
2018-May-16 04:28N 38°27' E 015°54'0 0.0
2018-May-16 03:58N 38°27' E 015°54'0 0.0
2018-May-16 03:28N 38°27' E 015°54'0 0.0
2018-May-16 02:58N 38°27' E 015°54'0 0.0
2018-May-16 02:28N 38°27' E 015°54'0 0.0
2018-May-16 01:58N 38°27' E 015°54'0 0.0
2018-May-16 01:28N 38°27' E 015°54'0 0.0
2018-May-16 00:58N 38°27' E 015°54'0 0.0
2018-May-16 00:28N 38°27' E 015°54'0 0.0
2018-May-15 23:58N 38°27' E 015°54'0 0.0
2018-May-15 23:28N 38°27' E 015°54'0 0.0
2018-May-15 22:58N 38°27' E 015°54'0 0.0
2018-May-15 22:28N 38°27' E 015°54'0 0.0
2018-May-15 21:46N 38°27' E 015°54'0 0.0
2018-May-15 21:28N 38°27' E 015°54'0 0.0
2018-May-15 20:46N 38°27' E 015°54'0 0.0
2018-May-15 20:28N 38°27' E 015°54'0 0.0
2018-May-15 19:58N 38°27' E 015°54'0 0.0
2018-May-15 19:28N 38°27' E 015°54'0 0.0
2018-May-15 18:58N 38°27' E 015°54'0 0.0
2018-May-15 18:28N 38°27' E 015°54'0 0.0
2018-May-15 17:58N 38°27' E 015°54'0 0.0
2018-May-15 17:28N 38°27' E 015°54'0 0.0
2018-May-15 16:58N 38°27' E 015°54'0 0.0
2018-May-15 16:04N 38°27' E 015°54'0 0.0
2018-May-15 15:40N 38°27' E 015°54'0 0.0
2018-May-15 08:04N 38°27' E 015°54'0 0.1
2018-May-15 07:58N 38°27' E 015°54'0 0.1
2018-May-15 07:30N 38°27' E 015°54'1 1.5
2018-May-15 06:52N 38°27' E 015°53'1 4.0
2018-May-15 06:30N 38°27' E 015°51'4 8.1
2018-May-15 06:00N 38°29' E 015°47'2 3.2
2018-May-15 05:28N 38°29' E 015°44'0 0.6
2018-May-15 05:00N 38°29' E 015°44'0 0.5
2018-May-15 04:30N 38°29' E 015°44'0 0.8
2018-May-15 04:00N 38°29' E 015°43'0 0.3
2018-May-15 03:28N 38°29' E 015°43'0 0.7
2018-May-15 02:58N 38°28' E 015°43'0 0.3
2018-May-15 02:30N 38°29' E 015°44'0 0.5
2018-May-15 02:00N 38°29' E 015°44'0 0.5
2018-May-15 01:30N 38°29' E 015°44'0 0.4
2018-May-15 01:00N 38°29' E 015°44'1 1.1
2018-May-15 00:30N 38°30' E 015°44'1 2.4
2018-May-14 23:56N 38°31' E 015°45'2 5.3
2018-May-14 23:30N 38°30' E 015°48'1 0.9
2018-May-14 22:40N 38°29' E 015°48'2 1.1
2018-May-14 21:09N 38°29' E 015°45'0 1.7
2018-May-14 21:00N 38°28' E 015°45'1 0.6
2018-May-14 20:02N 38°28' E 015°44'0 1.1
2018-May-14 20:00N 38°28' E 015°44'1 2.5
2018-May-14 19:28N 38°27' E 015°43'1 2.6
2018-May-14 19:00N 38°26' E 015°44'0 0.7
2018-May-14 18:30N 38°26' E 015°44'1 1.3
2018-May-14 18:00N 38°27' E 015°44'1 1.1
2018-May-14 17:30N 38°27' E 015°45'1 1.5
2018-May-14 17:00N 38°28' E 015°45'1 1.6
2018-May-14 16:30N 38°29' E 015°45'1 1.6
2018-May-14 16:00N 38°29' E 015°46'1 1.4
2018-May-14 15:29N 38°30' E 015°46'1 1.5
2018-May-14 14:59N 38°31' E 015°46'1 1.1
2018-May-14 14:27N 38°31' E 015°46'1 0.3
2018-May-14 11:47N 38°32' E 015°46'1 0.5
2018-May-14 09:11N 38°33' E 015°45'0 0.6
2018-May-14 09:00N 38°33' E 015°45'1 0.9
2018-May-14 08:26N 38°33' E 015°44'0 0.6
2018-May-14 08:00N 38°33' E 015°44'0 0.6
2018-May-14 07:19N 38°33' E 015°44'3 9.3
2018-May-14 07:00N 38°30' E 015°42'339.9 290 / 91016.010.8 21.016.919.1
2018-May-14 06:55N 38°33' E 015°43'3 3.1
2018-May-14 06:00N 38°30' E 015°42'4 1.7 270 / 71016.0 5.4 20.0 18.7
2018-May-14 03:31N 38°34' E 015°41'0 1.5
2018-May-14 03:16N 38°34' E 015°41'0 1.8
2018-May-14 03:00N 38°33' E 015°41'0 0.6
2018-May-14 02:30N 38°33' E 015°40'0 0.5
2018-May-14 01:56N 38°33' E 015°40'0 0.7
2018-May-14 01:29N 38°33' E 015°40'1 2.1
2018-May-14 00:54N 38°32' E 015°39'3 6.9
2018-May-14 00:30N 38°35' E 015°37'510.0
2018-May-14 00:00N 38°39' E 015°35'612.1
2018-May-13 23:30N 38°43' E 015°29'611.8
2018-May-13 23:00N 38°47' E 015°24'611.5
2018-May-13 22:30N 38°51' E 015°18'811.2
2018-May-13 21:46N 38°57' E 015°10'311.0
2018-May-13 21:30N 38°59' E 015°08'5111.5
2018-May-13 17:05N 39°32' E 014°18'311.7
2018-May-13 16:52N 39°33' E 014°15'411.8
2018-May-13 16:30N 39°36' E 014°11'611.9
2018-May-13 16:00N 39°40' E 014°05'611.8
2018-May-13 15:30N 39°44' E 013°59'611.7
2018-May-13 15:00N 39°48' E 013°54'16720.8
2018-May-13 07:00N 41°36' E 011°06'5017.2 170 / 101015.527.0 19.018.220.3
2018-May-13 04:05N 42°09' E 010°16'2120.0
2018-May-13 03:02N 42°24' E 009°56'120.0
2018-May-13 03:00N 42°25' E 009°56'1020.5
2018-May-13 02:30N 42°34' E 009°49'1020.3
2018-May-13 02:00N 42°43' E 009°43'1720.4
2018-May-13 01:09N 42°60' E 009°37'1 3.5
2018-May-13 01:00N 43°00' E 009°36'1028.6 290 / 91016.510.8 16.012.419.0
2018-May-13 00:39N 43°10' E 009°38'320.1
2018-May-13 00:30N 43°13' E 009°39'1020.4
2018-May-13 00:00N 43°22' E 009°42'1020.6
2018-May-12 23:30N 43°33' E 009°45'1020.5
2018-May-12 23:00N 43°43' E 009°47'1020.4
2018-May-12 22:30N 43°53' E 009°50'918.4
2018-May-12 22:00N 44°02' E 009°52'4 8.7
2018-May-12 21:30N 44°06' E 009°51'0 0.9
2018-May-12 20:59N 44°06' E 009°51'0 0.0
2018-May-12 20:29N 44°06' E 009°51'0 0.0
2018-May-12 19:59N 44°06' E 009°51'0 0.0
2018-May-12 19:29N 44°06' E 009°51'0 0.0
2018-May-12 18:59N 44°06' E 009°51'0 0.0
2018-May-12 18:29N 44°06' E 009°51'0 0.0
2018-May-12 17:59N 44°06' E 009°51'0 0.0
2018-May-12 17:29N 44°06' E 009°51'0 0.0
2018-May-12 16:59N 44°06' E 009°51'0 0.0
2018-May-12 16:29N 44°06' E 009°51'0 0.0
2018-May-12 15:59N 44°06' E 009°51'0 0.0
2018-May-12 15:29N 44°06' E 009°51'0 0.0
2018-May-12 14:59N 44°06' E 009°51'0 0.0
2018-May-12 14:26N 44°06' E 009°51'0 0.0
2018-May-12 13:59N 44°06' E 009°51'0 0.0
2018-May-12 13:29N 44°06' E 009°51'0 0.0
2018-May-12 12:59N 44°06' E 009°51'0 0.0
2018-May-12 12:29N 44°06' E 009°51'0 0.0
2018-May-12 11:59N 44°06' E 009°51'0 0.0
2018-May-12 11:29N 44°06' E 009°51'0 0.0
2018-May-12 10:59N 44°06' E 009°51'0 0.0
2018-May-12 10:29N 44°06' E 009°51'0 0.0
2018-May-12 09:59N 44°06' E 009°51'0 0.0
2018-May-12 09:26N 44°06' E 009°51'0 0.0
2018-May-12 08:59N 44°06' E 009°51'0 0.0
2018-May-12 08:29N 44°06' E 009°51'0 0.0
2018-May-12 07:59N 44°06' E 009°51'0 0.0
2018-May-12 07:29N 44°06' E 009°51'0 0.0
2018-May-12 06:59N 44°06' E 009°51'0 0.0
2018-May-12 06:29N 44°06' E 009°51'0 0.0
2018-May-12 05:59N 44°06' E 009°51'0 0.0
2018-May-12 05:29N 44°06' E 009°51'0 0.0
2018-May-12 04:59N 44°06' E 009°51'0 0.0
2018-May-12 04:29N 44°06' E 009°51'0 0.0
2018-May-12 03:59N 44°06' E 009°51'0 0.0
2018-May-12 03:29N 44°06' E 009°51'0 0.0
2018-May-12 02:59N 44°06' E 009°51'0 0.0
2018-May-12 02:29N 44°06' E 009°51'0 0.0
2018-May-12 01:59N 44°06' E 009°51'0 0.0
2018-May-12 01:29N 44°06' E 009°51'0 0.0
2018-May-12 00:59N 44°06' E 009°51'0 0.0
2018-May-12 00:29N 44°06' E 009°51'0 0.0
2018-May-11 23:59N 44°06' E 009°51'0 0.0
2018-May-11 23:29N 44°06' E 009°51'0 0.0
2018-May-11 22:59N 44°06' E 009°51'0 0.0
2018-May-11 22:29N 44°06' E 009°51'0 0.0
2018-May-11 21:59N 44°06' E 009°51'0 0.0
2018-May-11 21:29N 44°06' E 009°51'0 0.0
2018-May-11 20:59N 44°06' E 009°51'0 0.0
2018-May-11 20:29N 44°06' E 009°51'0 0.0
2018-May-11 19:59N 44°06' E 009°51'0 0.0
2018-May-11 19:29N 44°06' E 009°51'0 0.0
2018-May-11 18:59N 44°06' E 009°51'0 0.0
2018-May-11 18:29N 44°06' E 009°51'0 0.0
2018-May-11 17:59N 44°06' E 009°51'0 0.0
2018-May-11 17:29N 44°06' E 009°51'0 0.0
2018-May-11 16:59N 44°06' E 009°51'0 0.0
2018-May-11 16:29N 44°06' E 009°51'0 0.0
2018-May-11 15:59N 44°06' E 009°51'0 0.0
2018-May-11 15:29N 44°06' E 009°51'0 0.0
2018-May-11 14:59N 44°06' E 009°51'0 0.0
2018-May-11 14:29N 44°06' E 009°51'0 0.0
2018-May-11 13:59N 44°06' E 009°51'0 0.0
2018-May-11 13:29N 44°06' E 009°51'0 0.0
2018-May-11 12:59N 44°06' E 009°51'0 0.0
2018-May-11 12:29N 44°06' E 009°51'0 0.0
2018-May-11 11:59N 44°06' E 009°51'0 0.0
2018-May-11 11:29N 44°06' E 009°51'0 0.0
2018-May-11 10:59N 44°06' E 009°51'0 0.0
2018-May-11 10:29N 44°06' E 009°51'0 0.0
2018-May-11 09:59N 44°06' E 009°51'0 0.0
2018-May-11 09:29N 44°06' E 009°51'0 0.0
2018-May-11 08:59N 44°06' E 009°51'0 0.0
2018-May-11 08:29N 44°06' E 009°51'0 0.0
2018-May-11 07:59N 44°06' E 009°51'0 0.0
2018-May-11 07:29N 44°06' E 009°51'0 0.0
2018-May-11 06:59N 44°06' E 009°51'0 0.0
2018-May-11 06:29N 44°06' E 009°51'0 0.0
2018-May-11 05:53N 44°06' E 009°51'0 0.0
2018-May-11 05:29N 44°06' E 009°51'0 0.0
2018-May-11 04:59N 44°06' E 009°51'0 0.0
2018-May-11 04:29N 44°06' E 009°51'0 0.0
2018-May-11 03:59N 44°06' E 009°51'0 0.0
2018-May-11 03:29N 44°06' E 009°51'0 0.0
2018-May-11 02:59N 44°06' E 009°51'0 0.0
2018-May-11 02:29N 44°06' E 009°51'0 0.0
2018-May-11 01:59N 44°06' E 009°51'0 0.0
2018-May-11 01:29N 44°06' E 009°51'0 0.0
2018-May-11 00:59N 44°06' E 009°51'0 0.0
2018-May-11 00:29N 44°06' E 009°51'  
Track history (hours):
 
Tides and Currents Weather Stations Pressure Air Temp Water Temp Dewpoint Dewpoint Depression Visibility Wind Speed Wind Dir Waves Ship Positions

MSC Bari

Last reported at 2018-May-21 00:00 UTC. Time now 2018-May-22 08:49 UTC.
Position N 26°48' E 034°42'.

Length 366 m; draft 15.3 m.

Type: Ship (hazmat cat A). MMSI: 636092188.

Wind from 320 at 13 knots

Barometer 1009.3 mb
Air temperature 26.0 ° C
Visibility: greater than 10.8 NM
Dewpoint 21.5 ° C
Water temperature 27.0 ° C

Date/timePositionNaut miles runAvg speedWind from/ knotsBaromVisibWave heightAir tempDewpointWater temp
2018-May-21 00:00N 26°48' E 034°42'26814.7 320 / 131009.310.8 26.021.527.0
2018-May-20 05:44N 30°45' E 032°20'3 8.3
2018-May-20 05:21N 30°48' E 032°19'4 8.6
2018-May-20 04:53N 30°52' E 032°19'3 8.8
2018-May-20 04:30N 30°55' E 032°19'6 9.0
2018-May-20 03:52N 31°01' E 032°19'3 8.0
2018-May-20 03:30N 31°04' E 032°19'4 8.4
2018-May-20 03:01N 31°08' E 032°19'5 6.9
2018-May-20 02:21N 31°12' E 032°21'0 0.9
2018-May-20 01:51N 31°12' E 032°21'0 0.0
2018-May-20 01:30N 31°12' E 032°21'0 0.0
2018-May-20 00:57N 31°12' E 032°21'0 0.0
2018-May-19 23:27N 31°12' E 032°21'0 0.0
2018-May-19 21:48N 31°12' E 032°21'0 0.0
2018-May-19 21:27N 31°12' E 032°21'0 0.0
2018-May-19 21:00N 31°12' E 032°21'0 0.0
2018-May-19 20:30N 31°12' E 032°21'0 0.0
2018-May-19 19:57N 31°12' E 032°21'0 0.0
2018-May-19 19:24N 31°12' E 032°21'0 0.0
2018-May-19 19:00N 31°12' E 032°21'0 0.0
2018-May-19 18:30N 31°12' E 032°21'0 0.0
2018-May-19 17:57N 31°12' E 032°21'0 0.0
2018-May-19 17:27N 31°12' E 032°21'0 0.0
2018-May-19 17:00N 31°12' E 032°21'0 0.0
2018-May-19 13:45N 31°12' E 032°21'0 0.0
2018-May-19 13:30N 31°12' E 032°21'0 0.0
2018-May-19 12:42N 31°12' E 032°21'0 0.0
2018-May-19 11:15N 31°12' E 032°21'0 0.0
2018-May-19 11:00N 31°12' E 032°21'0 0.0
2018-May-19 10:30N 31°12' E 032°21'0 0.0
2018-May-19 08:21N 31°12' E 032°21'0 0.0
2018-May-19 08:00N 31°12' E 032°21'0 0.6
2018-May-19 07:30N 31°13' E 032°21'4 7.1
2018-May-19 07:00N 31°16' E 032°22'611.5
2018-May-19 06:30N 31°22' E 032°24'5 9.7
2018-May-19 06:00N 31°26' E 032°27'1 1.5
2018-May-19 05:28N 31°26' E 032°28'0 0.0
2018-May-19 04:58N 31°26' E 032°28'0 0.0
2018-May-19 04:28N 31°26' E 032°28'0 0.1
2018-May-19 03:58N 31°26' E 032°28'0 0.2
2018-May-19 03:28N 31°26' E 032°28'0 0.5
2018-May-19 03:00N 31°26' E 032°28'3 6.9
2018-May-19 02:30N 31°28' E 032°24'611.6
2018-May-19 02:00N 31°30' E 032°18'2413.7
2018-May-19 00:13N 31°46' E 031°56'315.0
2018-May-19 00:00N 31°47' E 031°52'41907.1
2018-May-19 00:00N 31°48' E 031°48'3113.4 350 / 161013.010.8 21.517.523.0
2018-May-18 21:43N 32°01' E 031°16'315.0
2018-May-18 21:30N 32°03' E 031°12'714.8
2018-May-18 21:00N 32°06' E 031°04'1014.9
2018-May-18 20:18N 32°10' E 030°53'414.9
2018-May-18 20:00N 32°12' E 030°48'1014.8
2018-May-18 19:21N 32°16' E 030°38'1415.1
2018-May-18 18:23N 32°22' E 030°22'615.1
2018-May-18 18:01N 32°24' E 030°16'713.9
2018-May-18 17:30N 32°27' E 030°09'611.1
2018-May-18 17:00N 32°30' E 030°03'816.2
2018-May-18 16:30N 32°33' E 029°54'1116.0
2018-May-18 15:49N 32°37' E 029°42'715.8
2018-May-18 15:24N 32°40' E 029°35'1215.6
2018-May-18 14:39N 32°44' E 029°22'515.4
2018-May-18 14:20N 32°46' E 029°17'1215.7
2018-May-18 13:33N 32°52' E 029°03'116.4
2018-May-18 13:30N 32°52' E 029°03'1733.9
2018-May-18 13:00N 32°54' E 028°42'21516.5 030 / 141015.010.8 24.019.423.0
2018-May-18 00:00N 34°24' E 024°48'11416.3 140 / 51016.010.8 21.517.521.0
2018-May-17 17:00N 35°12' E 022°42'8617.2 060 / 91016.8 5.4 20.5 21.4
2018-May-17 12:00N 35°48' E 021°06'5914.6 160 / 141017.010.8 21.517.521.5
2018-May-17 08:00N 36°12' E 020°00'13216.5 110 / 101018.010.8 21.518.321.1
2018-May-17 00:00N 37°06' E 017°30'8815.4 110 / 61016.510.8 16.513.920.0
2018-May-16 18:18N 37°48' E 015°53'815.9
2018-May-16 17:47N 37°51' E 015°44'515.8
2018-May-16 17:29N 37°53' E 015°38'714.6
2018-May-16 17:00N 37°59' E 015°33'816.4
2018-May-16 16:30N 38°07' E 015°35'816.2
2018-May-16 16:00N 38°15' E 015°38'714.0
2018-May-16 15:30N 38°21' E 015°43'712.9
2018-May-16 15:00N 38°25' E 015°49'4 8.2
2018-May-16 14:30N 38°27' E 015°54'0 0.1
2018-May-16 12:53N 38°27' E 015°54'0 0.0
2018-May-16 12:16N 38°27' E 015°54'0 0.0
2018-May-16 11:58N 38°27' E 015°54'0 0.0
2018-May-16 11:29N 38°27' E 015°54'0 0.0
2018-May-16 10:47N 38°27' E 015°54'0 0.0
2018-May-16 10:29N 38°27' E 015°54'0 0.0
2018-May-16 09:58N 38°27' E 015°54'0 0.0
2018-May-16 09:29N 38°27' E 015°54'0 0.0
2018-May-16 08:52N 38°27' E 015°54'0 0.0
2018-May-16 08:28N 38°27' E 015°54'0 0.0
2018-May-16 07:58N 38°27' E 015°54'0 0.0
2018-May-16 06:29N 38°27' E 015°54'0 0.0
2018-May-16 05:58N 38°27' E 015°54'0 0.0
2018-May-16 05:29N 38°27' E 015°54'0 0.0
2018-May-16 04:58N 38°27' E 015°54'0 0.0
2018-May-16 04:28N 38°27' E 015°54'0 0.0
2018-May-16 03:58N 38°27' E 015°54'0 0.0
2018-May-16 03:28N 38°27' E 015°54'0 0.0
2018-May-16 02:58N 38°27' E 015°54'0 0.0
2018-May-16 02:28N 38°27' E 015°54'0 0.0
2018-May-16 01:58N 38°27' E 015°54'0 0.0
2018-May-16 01:28N 38°27' E 015°54'0 0.0
2018-May-16 00:58N 38°27' E 015°54'0 0.0
2018-May-16 00:28N 38°27' E 015°54'0 0.0
2018-May-15 23:58N 38°27' E 015°54'0 0.0
2018-May-15 23:28N 38°27' E 015°54'0 0.0
2018-May-15 22:58N 38°27' E 015°54'0 0.0
2018-May-15 22:28N 38°27' E 015°54'0 0.0
2018-May-15 21:46N 38°27' E 015°54'0 0.0
2018-May-15 21:28N 38°27' E 015°54'0 0.0
2018-May-15 20:46N 38°27' E 015°54'0 0.0
2018-May-15 20:28N 38°27' E 015°54'0 0.0
2018-May-15 19:58N 38°27' E 015°54'0 0.0
2018-May-15 19:28N 38°27' E 015°54'0 0.0
2018-May-15 18:58N 38°27' E 015°54'0 0.0
2018-May-15 18:28N 38°27' E 015°54'0 0.0
2018-May-15 17:58N 38°27' E 015°54'0 0.0
2018-May-15 17:28N 38°27' E 015°54'0 0.0
2018-May-15 16:58N 38°27' E 015°54'0 0.0
2018-May-15 16:04N 38°27' E 015°54'0 0.0
2018-May-15 15:40N 38°27' E 015°54'0 0.0
2018-May-15 08:04N 38°27' E 015°54'0 0.1
2018-May-15 07:58N 38°27' E 015°54'0 0.1
2018-May-15 07:30N 38°27' E 015°54'1 1.5
2018-May-15 06:52N 38°27' E 015°53'1 4.0
2018-May-15 06:30N 38°27' E 015°51'4 8.1
2018-May-15 06:00N 38°29' E 015°47'2 3.2
2018-May-15 05:28N 38°29' E 015°44'0 0.6
2018-May-15 05:00N 38°29' E 015°44'0 0.5
2018-May-15 04:30N 38°29' E 015°44'0 0.8
2018-May-15 04:00N 38°29' E 015°43'0 0.3
2018-May-15 03:28N 38°29' E 015°43'0 0.7
2018-May-15 02:58N 38°28' E 015°43'0 0.3
2018-May-15 02:30N 38°29' E 015°44'0 0.5
2018-May-15 02:00N 38°29' E 015°44'0 0.5
2018-May-15 01:30N 38°29' E 015°44'0 0.4
2018-May-15 01:00N 38°29' E 015°44'1 1.1
2018-May-15 00:30N 38°30' E 015°44'1 2.4
2018-May-14 23:56N 38°31' E 015°45'2 5.3
2018-May-14 23:30N 38°30' E 015°48'1 0.9
2018-May-14 22:40N 38°29' E 015°48'2 1.1
2018-May-14 21:09N 38°29' E 015°45'0 1.7
2018-May-14 21:00N 38°28' E 015°45'1 0.6
2018-May-14 20:02N 38°28' E 015°44'0 1.1
2018-May-14 20:00N 38°28' E 015°44'1 2.5
2018-May-14 19:28N 38°27' E 015°43'1 2.6
2018-May-14 19:00N 38°26' E 015°44'0 0.7
2018-May-14 18:30N 38°26' E 015°44'1 1.3
2018-May-14 18:00N 38°27' E 015°44'1 1.1
2018-May-14 17:30N 38°27' E 015°45'1 1.5
2018-May-14 17:00N 38°28' E 015°45'1 1.6
2018-May-14 16:30N 38°29' E 015°45'1 1.6
2018-May-14 16:00N 38°29' E 015°46'1 1.4
2018-May-14 15:29N 38°30' E 015°46'1 1.5
2018-May-14 14:59N 38°31' E 015°46'1 1.1
2018-May-14 14:27N 38°31' E 015°46'1 0.3
2018-May-14 11:47N 38°32' E 015°46'1 0.5
2018-May-14 09:11N 38°33' E 015°45'0 0.6
2018-May-14 09:00N 38°33' E 015°45'1 0.9
2018-May-14 08:26N 38°33' E 015°44'0 0.6
2018-May-14 08:00N 38°33' E 015°44'0 0.6
2018-May-14 07:19N 38°33' E 015°44'3 9.3
2018-May-14 07:00N 38°30' E 015°42'339.9 290 / 91016.010.8 21.016.919.1
2018-May-14 06:55N 38°33' E 015°43'3 3.1
2018-May-14 06:00N 38°30' E 015°42'4 1.7 270 / 71016.0 5.4 20.0 18.7
2018-May-14 03:31N 38°34' E 015°41'0 1.5
2018-May-14 03:16N 38°34' E 015°41'0 1.8
2018-May-14 03:00N 38°33' E 015°41'0 0.6
2018-May-14 02:30N 38°33' E 015°40'0 0.5
2018-May-14 01:56N 38°33' E 015°40'0 0.7
2018-May-14 01:29N 38°33' E 015°40'1 2.1
2018-May-14 00:54N 38°32' E 015°39'3 6.9
2018-May-14 00:30N 38°35' E 015°37'510.0
2018-May-14 00:00N 38°39' E 015°35'612.1
2018-May-13 23:30N 38°43' E 015°29'611.8
2018-May-13 23:00N 38°47' E 015°24'611.5
2018-May-13 22:30N 38°51' E 015°18'811.2
2018-May-13 21:46N 38°57' E 015°10'311.0
2018-May-13 21:30N 38°59' E 015°08'5111.5
2018-May-13 17:05N 39°32' E 014°18'311.7
2018-May-13 16:52N 39°33' E 014°15'411.8
2018-May-13 16:30N 39°36' E 014°11'611.9
2018-May-13 16:00N 39°40' E 014°05'611.8
2018-May-13 15:30N 39°44' E 013°59'611.7
2018-May-13 15:00N 39°48' E 013°54'16720.8
2018-May-13 07:00N 41°36' E 011°06'5017.2 170 / 101015.527.0 19.018.220.3
2018-May-13 04:05N 42°09' E 010°16'2120.0
2018-May-13 03:02N 42°24' E 009°56'120.0
2018-May-13 03:00N 42°25' E 009°56'1020.5
2018-May-13 02:30N 42°34' E 009°49'1020.3
2018-May-13 02:00N 42°43' E 009°43'1720.4
2018-May-13 01:09N 42°60' E 009°37'1 3.5
2018-May-13 01:00N 43°00' E 009°36'1028.6 290 / 91016.510.8 16.012.419.0
2018-May-13 00:39N 43°10' E 009°38'320.1
2018-May-13 00:30N 43°13' E 009°39'1020.4
2018-May-13 00:00N 43°22' E 009°42'1020.6
2018-May-12 23:30N 43°33' E 009°45'1020.5
2018-May-12 23:00N 43°43' E 009°47'1020.4
2018-May-12 22:30N 43°53' E 009°50'918.4
2018-May-12 22:00N 44°02' E 009°52'4 8.7
2018-May-12 21:30N 44°06' E 009°51'0 0.9
2018-May-12 20:59N 44°06' E 009°51'0 0.0
2018-May-12 20:29N 44°06' E 009°51'0 0.0
2018-May-12 19:59N 44°06' E 009°51'0 0.0
2018-May-12 19:29N 44°06' E 009°51'0 0.0
2018-May-12 18:59N 44°06' E 009°51'0 0.0
2018-May-12 18:29N 44°06' E 009°51'0 0.0
2018-May-12 17:59N 44°06' E 009°51'0 0.0
2018-May-12 17:29N 44°06' E 009°51'0 0.0
2018-May-12 16:59N 44°06' E 009°51'0 0.0
2018-May-12 16:29N 44°06' E 009°51'0 0.0
2018-May-12 15:59N 44°06' E 009°51'0 0.0
2018-May-12 15:29N 44°06' E 009°51'0 0.0
2018-May-12 14:59N 44°06' E 009°51'0 0.0
2018-May-12 14:26N 44°06' E 009°51'0 0.0
2018-May-12 13:59N 44°06' E 009°51'0 0.0
2018-May-12 13:29N 44°06' E 009°51'0 0.0
2018-May-12 12:59N 44°06' E 009°51'0 0.0
2018-May-12 12:29N 44°06' E 009°51'0 0.0
2018-May-12 11:59N 44°06' E 009°51'0 0.0
2018-May-12 11:29N 44°06' E 009°51'0 0.0
2018-May-12 10:59N 44°06' E 009°51'0 0.0
2018-May-12 10:29N 44°06' E 009°51'0 0.0
2018-May-12 09:59N 44°06' E 009°51'0 0.0
2018-May-12 09:26N 44°06' E 009°51'0 0.0
2018-May-12 08:59N 44°06' E 009°51'0 0.0
2018-May-12 08:29N 44°06' E 009°51'0 0.0
2018-May-12 07:59N 44°06' E 009°51'0 0.0
2018-May-12 07:29N 44°06' E 009°51'0 0.0
2018-May-12 06:59N 44°06' E 009°51'0 0.0
2018-May-12 06:29N 44°06' E 009°51'0 0.0
2018-May-12 05:59N 44°06' E 009°51'0 0.0
2018-May-12 05:29N 44°06' E 009°51'0 0.0
2018-May-12 04:59N 44°06' E 009°51'0 0.0
2018-May-12 04:29N 44°06' E 009°51'0 0.0
2018-May-12 03:59N 44°06' E 009°51'0 0.0
2018-May-12 03:29N 44°06' E 009°51'0 0.0
2018-May-12 02:59N 44°06' E 009°51'0 0.0
2018-May-12 02:29N 44°06' E 009°51'0 0.0
2018-May-12 01:59N 44°06' E 009°51'0 0.0
2018-May-12 01:29N 44°06' E 009°51'0 0.0
2018-May-12 00:59N 44°06' E 009°51'0 0.0
2018-May-12 00:29N 44°06' E 009°51'0 0.0
2018-May-11 23:59N 44°06' E 009°51'0 0.0
2018-May-11 23:29N 44°06' E 009°51'0 0.0
2018-May-11 22:59N 44°06' E 009°51'0 0.0
2018-May-11 22:29N 44°06' E 009°51'0 0.0
2018-May-11 21:59N 44°06' E 009°51'0 0.0
2018-May-11 21:29N 44°06' E 009°51'0 0.0
2018-May-11 20:59N 44°06' E 009°51'0 0.0
2018-May-11 20:29N 44°06' E 009°51'0 0.0
2018-May-11 19:59N 44°06' E 009°51'0 0.0
2018-May-11 19:29N 44°06' E 009°51'0 0.0
2018-May-11 18:59N 44°06' E 009°51'0 0.0
2018-May-11 18:29N 44°06' E 009°51'0 0.0
2018-May-11 17:59N 44°06' E 009°51'0 0.0
2018-May-11 17:29N 44°06' E 009°51'0 0.0
2018-May-11 16:59N 44°06' E 009°51'0 0.0
2018-May-11 16:29N 44°06' E 009°51'0 0.0
2018-May-11 15:59N 44°06' E 009°51'0 0.0
2018-May-11 15:29N 44°06' E 009°51'0 0.0
2018-May-11 14:59N 44°06' E 009°51'0 0.0
2018-May-11 14:29N 44°06' E 009°51'0 0.0
2018-May-11 13:59N 44°06' E 009°51'0 0.0
2018-May-11 13:29N 44°06' E 009°51'0 0.0
2018-May-11 12:59N 44°06' E 009°51'0 0.0
2018-May-11 12:29N 44°06' E 009°51'0 0.0
2018-May-11 11:59N 44°06' E 009°51'0 0.0
2018-May-11 11:29N 44°06' E 009°51'0 0.0
2018-May-11 10:59N 44°06' E 009°51'0 0.0
2018-May-11 10:29N 44°06' E 009°51'0 0.0
2018-May-11 09:59N 44°06' E 009°51'0 0.0
2018-May-11 09:29N 44°06' E 009°51'0 0.0
2018-May-11 08:59N 44°06' E 009°51'0 0.0
2018-May-11 08:29N 44°06' E 009°51'0 0.0
2018-May-11 07:59N 44°06' E 009°51'0 0.0
2018-May-11 07:29N 44°06' E 009°51'0 0.0
2018-May-11 06:59N 44°06' E 009°51'0 0.0
2018-May-11 06:29N 44°06' E 009°51'0 0.0
2018-May-11 05:53N 44°06' E 009°51'0 0.0
2018-May-11 05:29N 44°06' E 009°51'0 0.0
2018-May-11 04:59N 44°06' E 009°51'0 0.0
2018-May-11 04:29N 44°06' E 009°51'0 0.0
2018-May-11 03:59N 44°06' E 009°51'0 0.0
2018-May-11 03:29N 44°06' E 009°51'0 0.0
2018-May-11 02:59N 44°06' E 009°51'0 0.0
2018-May-11 02:29N 44°06' E 009°51'0 0.0
2018-May-11 01:59N 44°06' E 009°51'0 0.0
2018-May-11 01:29N 44°06' E 009°51'0 0.0
2018-May-11 00:59N 44°06' E 009°51'0 0.0
2018-May-11 00:29N 44°06' E 009°51'  

Dump ship's entire track history